Time;durP1;ratioP1;P1;durP2;ratioP2;P2;SDS_P1;SDS_P2;PMS_P1;PMS_P2;Temp;Humidity;BMP_temperature;BMP_pressure;BME280_temperature;BME280_humidity;BME280_pressure;Samples;Min_cycle;Max_cycle;Signal;HPM_P1;HPM_P2
2022/08/20 00:00:50;;;;;;;17.30;15.63;;;18.80;99.90;;;;;;5070633;28;20480;-71
2022/08/20 00:03:55;;;;;;;15.80;14.50;;;18.80;99.90;;;;;;5063129;28;20456;-70
2022/08/20 00:06:48;;;;;;;15.60;14.30;;;18.80;99.90;;;;;;5065103;28;20473;-71
2022/08/20 00:09:37;;;;;;;15.60;14.27;;;18.80;99.90;;;;;;5071073;28;20448;-71
2022/08/20 00:12:45;;;;;;;15.97;14.67;;;18.80;99.90;;;;;;5067016;28;20979;-71
2022/08/20 00:15:36;;;;;;;14.97;13.77;;;18.80;99.90;;;;;;5065708;28;20469;-71
2022/08/20 00:18:25;;;;;;;14.67;13.43;;;18.80;99.90;;;;;;5071979;28;20524;-71
2022/08/20 00:21:20;;;;;;;14.87;13.77;;;18.80;99.90;;;;;;5061677;28;20522;-71
2022/08/20 00:24:10;;;;;;;14.87;13.57;;;18.80;99.90;;;;;;5064989;28;20973;-71
2022/08/20 00:27:02;;;;;;;14.03;12.93;;;18.80;99.90;;;;;;5062867;28;20565;-71
2022/08/20 00:29:50;;;;;;;14.17;13.07;;;18.80;99.90;;;;;;5060350;28;20459;-71
2022/08/20 00:32:46;;;;;;;14.57;13.27;;;18.80;99.90;;;;;;5063888;28;21023;-71
2022/08/20 00:35:48;;;;;;;13.80;12.70;;;18.80;99.90;;;;;;5063401;28;21168;-71
2022/08/20 00:38:48;;;;;;;13.30;12.20;;;18.80;99.90;;;;;;5063675;28;20451;-71
2022/08/20 00:41:39;;;;;;;13.27;12.10;;;18.80;99.90;;;;;;5057976;28;20485;-71
2022/08/20 00:44:27;;;;;;;12.53;11.53;;;18.80;99.90;;;;;;5065305;28;20514;-71
2022/08/20 00:47:22;;;;;;;12.70;11.70;;;18.80;99.90;;;;;;5061576;28;20959;-71
2022/08/20 00:50:15;;;;;;;11.47;10.53;;;18.90;99.90;;;;;;5061008;28;20452;-72
2022/08/20 00:53:07;;;;;;;9.90;9.10;;;18.80;99.90;;;;;;5060987;28;20512;-71
2022/08/20 00:55:57;;;;;;;10.67;9.77;;;18.80;99.90;;;;;;5065754;28;20551;-72
2022/08/20 00:58:49;;;;;;;10.07;9.27;;;18.80;99.90;;;;;;5069009;28;20544;-71
2022/08/20 01:01:39;;;;;;;10.30;9.50;;;18.90;99.90;;;;;;5075855;28;20486;-71
2022/08/20 01:04:49;;;;;;;10.73;9.93;;;18.90;99.90;;;;;;5063564;28;21301;-71
2022/08/20 01:07:47;;;;;;;9.50;8.80;;;18.90;99.90;;;;;;5057640;28;20605;-71
2022/08/20 01:10:51;;;;;;;;;;;;;;;;;;;;;
2022/08/20 01:13:42;;;;;;;9.63;8.90;;;18.90;99.90;;;;;;5062589;28;20445;-71
2022/08/20 01:16:32;;;;;;;9.73;8.93;;;18.90;99.90;;;;;;5062158;28;20559;-71
2022/08/20 01:19:27;;;;;;;8.70;8.10;;;18.90;99.90;;;;;;5064070;28;20507;-71
2022/08/20 01:25:49;;;;;;;8.53;7.83;;;18.90;99.90;;;;;;5063104;28;20579;-71
2022/08/20 01:28:42;;;;;;;8.47;7.87;;;18.90;99.90;;;;;;5072141;28;21295;-71
2022/08/20 01:31:33;;;;;;;7.87;7.27;;;18.90;99.90;;;;;;5064652;28;20451;-71
2022/08/20 01:34:21;;;;;;;8.80;8.10;;;18.90;99.90;;;;;;5058630;28;20548;-71
2022/08/20 01:37:09;;;;;;;8.00;7.40;;;18.90;99.90;;;;;;5059843;28;20507;-71
2022/08/20 01:39:58;;;;;;;8.00;7.40;;;18.80;99.90;;;;;;5068502;28;20553;-71
2022/08/20 01:42:48;;;;;;;7.83;7.13;;;18.80;99.90;;;;;;5060119;28;20540;-71
2022/08/20 01:45:56;;;;;;;7.17;6.67;;;18.80;99.90;;;;;;5062421;28;22481;-71
2022/08/20 01:49:08;;;;;;;6.93;6.43;;;18.80;99.90;;;;;;5062908;28;21411;-70
2022/08/20 01:52:08;;;;;;;6.37;5.80;;;18.80;99.90;;;;;;5057661;28;20450;-70
2022/08/20 01:54:58;;;;;;;7.13;6.53;;;18.80;99.90;;;;;;5070094;28;20499;-70
2022/08/20 01:57:48;;;;;;;6.67;6.10;;;18.80;99.90;;;;;;5061840;28;21136;-70
2022/08/20 02:00:43;;;;;;;6.50;6.00;;;18.80;99.90;;;;;;5065714;28;20457;-71
2022/08/20 02:03:55;;;;;;;7.20;6.63;;;18.80;99.90;;;;;;5064086;28;20477;-71
2022/08/20 02:06:50;;;;;;;5.90;5.50;;;18.80;99.90;;;;;;5064319;28;20983;-71
2022/08/20 02:09:46;;;;;;;6.87;6.37;;;18.80;99.90;;;;;;5057909;28;22135;-71
2022/08/20 02:12:34;;;;;;;6.47;5.97;;;18.80;99.90;;;;;;5060914;28;20446;-71
2022/08/20 02:15:29;;;;;;;6.77;6.23;;;18.80;99.90;;;;;;5065740;28;21112;-70
2022/08/20 02:18:24;;;;;;;6.17;5.57;;;18.70;99.90;;;;;;5061400;28;20518;-70
2022/08/20 02:21:14;;;;;;;6.80;6.20;;;18.70;99.90;;;;;;5056316;28;20477;-71
2022/08/20 02:24:02;;;;;;;6.60;6.00;;;18.70;99.90;;;;;;5068823;28;20513;-71
2022/08/20 02:26:56;;;;;;;6.30;5.80;;;18.70;99.90;;;;;;5060306;28;20972;-71
2022/08/20 02:29:45;;;;;;;6.63;6.13;;;18.70;99.90;;;;;;5063292;28;20441;-71
2022/08/20 02:32:37;;;;;;;6.90;6.40;;;18.70;99.90;;;;;;5062904;28;20474;-70
2022/08/20 02:35:28;;;;;;;6.23;5.63;;;18.70;99.90;;;;;;5066627;28;20879;-70
2022/08/20 02:38:17;;;;;;;5.80;5.40;;;18.70;99.90;;;;;;5056653;28;20560;-71
2022/08/20 02:41:12;;;;;;;6.03;5.53;;;18.70;99.90;;;;;;5073691;28;20458;-71
2022/08/20 02:44:00;;;;;;;6.53;6.10;;;18.70;99.90;;;;;;5066421;28;20562;-71
2022/08/20 02:46:48;;;;;;;6.47;6.00;;;18.70;99.90;;;;;;5063207;28;20582;-70
2022/08/20 02:49:47;;;;;;;6.17;5.67;;;18.70;99.90;;;;;;5071153;28;20968;-71
2022/08/20 02:52:37;;;;;;;6.20;5.70;;;18.70;99.90;;;;;;5070920;28;20830;-70
2022/08/20 02:55:41;;;;;;;5.90;5.50;;;18.70;99.90;;;;;;5063459;28;20514;-71
2022/08/20 02:58:34;;;;;;;6.73;6.13;;;18.70;99.90;;;;;;5066124;28;20460;-70
2022/08/20 03:01:29;;;;;;;5.77;5.37;;;18.70;99.90;;;;;;5059115;28;21044;-72
2022/08/20 03:04:22;;;;;;;6.27;5.77;;;18.70;99.90;;;;;;5069060;28;20480;-72
2022/08/20 03:07:18;;;;;;;6.40;5.90;;;18.70;99.90;;;;;;5065498;28;20474;-72
2022/08/20 03:10:18;;;;;;;6.13;5.73;;;18.60;99.90;;;;;;5068716;28;20970;-73
2022/08/20 03:13:24;;;;;;;6.50;6.00;;;18.70;99.90;;;;;;5061767;28;20445;-72
2022/08/20 03:16:14;;;;;;;6.23;5.63;;;18.60;99.90;;;;;;5069456;28;20597;-72
2022/08/20 03:19:04;;;;;;;6.70;6.10;;;18.60;99.90;;;;;;5068562;28;20529;-72
2022/08/20 03:21:55;;;;;;;6.77;6.20;;;18.60;99.90;;;;;;5068239;28;20585;-72
2022/08/20 03:24:48;;;;;;;6.80;6.30;;;18.60;99.90;;;;;;5068792;28;20517;-73
2022/08/20 03:27:45;;;;;;;6.77;6.27;;;18.60;99.90;;;;;;5064294;28;20960;-73
2022/08/20 03:30:50;;;;;;;6.80;6.30;;;18.60;99.90;;;;;;5066583;28;20450;-73
2022/08/20 03:33:53;;;;;;;7.30;6.70;;;18.60;99.90;;;;;;5065286;28;20484;-73
2022/08/20 03:36:55;;;;;;;7.93;7.23;;;18.60;99.90;;;;;;5065441;28;20484;-73
2022/08/20 03:39:48;;;;;;;8.70;7.57;;;18.60;99.90;;;;;;5069393;28;20615;-73
2022/08/20 03:42:40;;;;;;;7.87;7.20;;;18.60;99.90;;;;;;5069066;28;20458;-73
2022/08/20 03:45:31;;;;;;;8.80;8.10;;;18.60;99.90;;;;;;5068516;28;20473;-73
2022/08/20 03:48:22;;;;;;;8.33;7.53;;;18.60;99.90;;;;;;5074674;28;20599;-72
2022/08/20 03:51:10;;;;;;;11.00;10.00;;;18.60;99.90;;;;;;5069942;28;21111;-72
2022/08/20 03:53:59;;;;;;;9.70;8.80;;;18.60;99.90;;;;;;5066978;28;20465;-72
2022/08/20 03:56:55;;;;;;;7.93;7.23;;;18.60;99.90;;;;;;5067788;28;20884;-72
2022/08/20 03:59:45;;;;;;;9.43;8.53;;;18.60;99.90;;;;;;5072539;28;20472;-72
2022/08/20 04:02:56;;;;;;;8.37;7.67;;;18.60;99.90;;;;;;5070142;28;20487;-73
2022/08/20 04:05:45;;;;;;;9.70;8.70;;;18.60;99.90;;;;;;5064797;28;20851;-73
2022/08/20 04:08:47;;;;;;;10.40;9.50;;;18.60;99.90;;;;;;5068178;28;20547;-73
2022/08/20 04:11:36;;;;;;;12.27;11.03;;;18.60;99.90;;;;;;5067990;28;20678;-73
2022/08/20 04:14:25;;;;;;;10.67;9.60;;;18.60;99.90;;;;;;5069730;28;20563;-73
2022/08/20 04:17:18;;;;;;;14.00;12.60;;;18.60;99.90;;;;;;5075381;28;20835;-73
2022/08/20 04:20:14;;;;;;;12.93;11.40;;;18.70;99.90;;;;;;5083328;28;20978;-72
2022/08/20 04:23:05;;;;;;;13.20;10.80;;;18.70;99.90;;;;;;5082533;28;20953;-73
2022/08/20 04:25:57;;;;;;;12.13;10.97;;;18.70;99.90;;;;;;5075911;28;21012;-73
2022/08/20 04:28:45;;;;;;;11.20;10.10;;;18.80;99.90;;;;;;5075921;28;20900;-73
2022/08/20 04:31:37;;;;;;;10.70;9.70;;;18.70;99.90;;;;;;5072411;28;20599;-72
2022/08/20 04:34:31;;;;;;;12.53;11.17;;;18.80;99.90;;;;;;5066332;28;20478;-73
2022/08/20 04:37:37;;;;;;;11.30;10.30;;;18.80;99.90;;;;;;5067721;28;20916;-72
2022/08/20 04:44:01;;;;;;;13.13;11.50;;;18.80;99.90;;;;;;5064651;28;20482;-73
2022/08/20 04:47:06;;;;;;;11.40;10.30;;;18.80;99.90;;;;;;5063024;28;20465;-72
2022/08/20 04:50:09;;;;;;;12.50;11.40;;;18.80;99.90;;;;;;5071025;28;20493;-72
2022/08/20 04:53:15;;;;;;;12.37;10.97;;;18.90;99.90;;;;;;5061825;28;20453;-73
2022/08/20 04:56:18;;;;;;;13.80;12.40;;;18.90;99.90;;;;;;5064575;28;20476;-72
2022/08/20 04:59:09;;;;;;;13.93;12.63;;;18.90;99.90;;;;;;5066399;28;20563;-72
2022/08/20 05:02:01;;;;;;;13.03;11.80;;;19.00;99.90;;;;;;5063743;28;20470;-72
2022/08/20 05:04:51;;;;;;;13.40;12.10;;;19.00;99.90;;;;;;5062740;28;20522;-73
2022/08/20 05:07:56;;;;;;;14.80;13.40;;;19.00;99.90;;;;;;5063684;28;20686;-73
2022/08/20 05:11:08;;;;;;;13.53;12.23;;;19.00;99.90;;;;;;5067675;28;20456;-73
2022/08/20 05:14:16;;;;;;;12.80;11.43;;;19.10;99.90;;;;;;5064472;28;20454;-73
2022/08/20 05:17:15;;;;;;;13.33;12.13;;;19.10;99.90;;;;;;5064828;28;20474;-73
2022/08/20 05:20:24;;;;;;;12.93;11.70;;;19.10;99.90;;;;;;5063329;28;20532;-72
2022/08/20 05:23:14;;;;;;;12.53;11.13;;;19.20;99.90;;;;;;5061811;28;20531;-74
2022/08/20 05:26:06;;;;;;;13.23;12.03;;;19.20;99.90;;;;;;5069838;28;20508;-72
2022/08/20 05:28:58;;;;;;;13.40;12.20;;;19.20;99.90;;;;;;5069455;28;20485;-73
2022/08/20 05:32:00;;;;;;;;;;;;;;;;;;;;;
2022/08/20 05:35:01;;;;;;;13.07;11.77;;;19.20;99.90;;;;;;5066722;28;21028;-73
2022/08/20 05:37:54;;;;;;;13.27;11.97;;;19.30;99.90;;;;;;5062605;28;20531;-73
2022/08/20 05:40:47;;;;;;;13.70;12.40;;;19.30;99.90;;;;;;5065681;28;20619;-73
2022/08/20 05:43:40;;;;;;;13.53;12.13;;;19.40;99.90;;;;;;5071931;28;20442;-73
2022/08/20 05:46:50;;;;;;;14.63;13.17;;;19.30;99.90;;;;;;5072404;28;20472;-73
2022/08/20 05:49:54;;;;;;;11.97;10.83;;;19.40;99.90;;;;;;5075694;28;20467;-75
2022/08/20 05:52:49;;;;;;;14.07;12.07;;;19.50;99.90;;;;;;5069168;28;20448;-73
2022/08/20 05:55:39;;;;;;;13.10;12.00;;;19.50;99.90;;;;;;5082166;28;20473;-73
2022/08/20 05:58:31;;;;;;;13.10;11.77;;;19.60;99.90;;;;;;5075852;28;20525;-72
2022/08/20 06:01:19;;;;;;;13.90;11.97;;;19.50;99.90;;;;;;5072803;28;20499;-76
2022/08/20 06:04:26;;;;;;;12.47;11.17;;;19.60;99.90;;;;;;5049377;28;20474;-73
2022/08/20 06:07:16;;;;;;;12.83;11.67;;;19.60;99.90;;;;;;5062593;28;20497;-75
2022/08/20 06:10:09;;;;;;;13.33;12.03;;;19.60;99.90;;;;;;5072112;28;20457;-73
2022/08/20 06:13:01;;;;;;;11.90;10.90;;;19.70;99.90;;;;;;5070554;28;20477;-74
2022/08/20 06:15:50;;;;;;;13.50;12.20;;;19.70;99.90;;;;;;5069226;28;20462;-74
2022/08/20 06:18:38;;;;;;;12.33;11.13;;;19.70;99.90;;;;;;5069327;28;20475;-74
2022/08/20 06:21:26;;;;;;;12.00;10.90;;;19.80;99.90;;;;;;5059455;28;20450;-77
2022/08/20 06:24:15;;;;;;;13.10;11.90;;;19.80;99.90;;;;;;5055735;28;21052;-72
2022/08/20 06:27:05;;;;;;;12.43;11.23;;;19.90;99.90;;;;;;5053042;28;20461;-74
2022/08/20 06:29:54;;;;;;;11.63;10.63;;;19.90;99.90;;;;;;5067110;28;20502;-73
2022/08/20 06:32:42;;;;;;;11.47;10.47;;;19.90;99.90;;;;;;5067794;28;21031;-73
2022/08/20 06:35:31;;;;;;;11.30;10.20;;;19.90;99.90;;;;;;5065689;28;20518;-74
2022/08/20 06:38:20;;;;;;;11.30;10.10;;;19.90;99.90;;;;;;5068511;28;20586;-73
2022/08/20 06:41:08;;;;;;;11.40;10.30;;;19.90;99.90;;;;;;5067978;28;20949;-76
2022/08/20 06:43:59;;;;;;;12.40;11.30;;;19.90;99.90;;;;;;5068469;28;20453;-74
2022/08/20 06:46:47;;;;;;;12.17;11.07;;;20.00;99.90;;;;;;5039308;28;21019;-73
2022/08/20 06:49:36;;;;;;;11.80;10.70;;;20.00;99.90;;;;;;5062203;28;20461;-73
2022/08/20 06:52:24;;;;;;;12.53;11.37;;;20.00;99.90;;;;;;5053786;28;20454;-73
2022/08/20 06:55:33;;;;;;;12.07;10.80;;;20.00;99.90;;;;;;5059688;28;20477;-72
2022/08/20 06:58:21;;;;;;;10.77;9.87;;;20.00;99.90;;;;;;5056078;28;20687;-72
2022/08/20 07:01:27;;;;;;;11.20;10.20;;;20.10;99.90;;;;;;5044659;28;21246;-72
2022/08/20 07:04:15;;;;;;;10.63;9.63;;;20.10;99.90;;;;;;5056703;28;20455;-74
2022/08/20 07:07:06;;;;;;;11.70;10.63;;;20.20;99.90;;;;;;5061499;28;20579;-73
2022/08/20 07:09:59;;;;;;;9.90;9.13;;;20.20;99.90;;;;;;5059306;28;20749;-74
2022/08/20 07:12:49;;;;;;;10.93;9.93;;;20.30;99.90;;;;;;5056034;28;20506;-73
2022/08/20 07:15:38;;;;;;;10.70;9.80;;;20.40;99.90;;;;;;5069560;28;20477;-72
2022/08/20 07:18:28;;;;;;;9.90;8.90;;;20.40;99.90;;;;;;5064867;28;21186;-73
2022/08/20 07:21:17;;;;;;;8.37;7.73;;;20.50;99.90;;;;;;5054323;28;20462;-73
2022/08/20 07:24:05;;;;;;;9.30;8.60;;;20.50;99.90;;;;;;5065241;28;20472;-74
2022/08/20 07:26:53;;;;;;;9.83;8.47;;;20.60;99.90;;;;;;5062220;28;20604;-73
2022/08/20 07:32:52;;;;;;;8.27;7.57;;;20.70;99.90;;;;;;5056225;28;20996;-73
2022/08/20 07:35:47;;;;;;;7.70;7.00;;;20.80;99.90;;;;;;5058761;28;20522;-73
2022/08/20 07:38:35;;;;;;;7.23;6.33;;;20.80;99.90;;;;;;5062237;28;20539;-72
2022/08/20 07:41:29;;;;;;;7.60;6.90;;;20.90;99.90;;;;;;5063452;28;20548;-73
2022/08/20 07:44:20;;;;;;;6.77;6.07;;;20.90;99.90;;;;;;5062058;28;20463;-74
2022/08/20 07:47:18;;;;;;;6.10;5.60;;;21.00;99.90;;;;;;5060491;28;20564;-74
2022/08/20 07:50:08;;;;;;;6.83;6.23;;;21.00;99.90;;;;;;5059789;28;20456;-73
2022/08/20 07:52:59;;;;;;;8.13;6.67;;;21.00;99.90;;;;;;5066063;28;20464;-73
2022/08/20 07:55:47;;;;;;;7.47;6.80;;;21.10;99.90;;;;;;5051919;28;20738;-73
2022/08/20 07:58:51;;;;;;;6.20;5.70;;;21.10;99.90;;;;;;5054995;28;20454;-74
2022/08/20 08:01:40;;;;;;;6.43;5.93;;;21.10;99.90;;;;;;5054060;28;20492;-74
2022/08/20 08:04:29;;;;;;;6.83;5.40;;;21.20;99.90;;;;;;5054759;28;21476;-72
2022/08/20 08:07:17;;;;;;;6.40;5.80;;;21.20;99.90;;;;;;5053299;28;21010;-74
2022/08/20 08:10:11;;;;;;;5.20;4.80;;;21.20;99.90;;;;;;5054620;28;20468;-73
2022/08/20 08:13:04;;;;;;;5.30;4.90;;;21.20;99.90;;;;;;5062968;28;20458;-72
2022/08/20 08:15:56;;;;;;;5.90;4.20;;;21.30;99.90;;;;;;5051345;28;20456;-73
2022/08/20 08:18:55;;;;;;;4.73;4.37;;;21.40;99.90;;;;;;5057693;28;20452;-73
2022/08/20 08:21:44;;;;;;;4.97;4.57;;;21.40;99.90;;;;;;5053986;28;20461;-73
2022/08/20 08:24:32;;;;;;;7.23;4.97;;;21.50;99.90;;;;;;5050637;28;20462;-73
2022/08/20 08:27:23;;;;;;;5.17;4.30;;;21.60;99.90;;;;;;5052627;28;20901;-74
2022/08/20 08:30:12;;;;;;;4.77;4.37;;;21.60;99.90;;;;;;5040415;28;20453;-71
2022/08/20 08:36:09;;;;;;;4.30;3.90;;;21.70;99.90;;;;;;5062158;28;20980;-71
2022/08/20 08:38:57;;;;;;;5.23;4.23;;;21.70;99.90;;;;;;5054238;28;20487;-71
2022/08/20 08:41:48;;;;;;;4.43;4.13;;;21.80;99.90;;;;;;5054162;28;20445;-70
2022/08/20 08:44:41;;;;;;;4.57;4.27;;;21.90;99.90;;;;;;5054932;28;20454;-71
2022/08/20 08:47:34;;;;;;;4.57;3.67;;;22.10;99.90;;;;;;5059730;28;20966;-71
2022/08/20 08:50:25;;;;;;;4.27;3.87;;;22.10;99.90;;;;;;5053652;28;20534;-71
2022/08/20 08:53:38;;;;;;;3.77;3.23;;;22.20;99.90;;;;;;5055585;28;20450;-72
2022/08/20 08:56:29;;;;;;;3.10;2.60;;;22.20;99.90;;;;;;5054696;28;20559;-71
2022/08/20 08:59:20;;;;;;;3.80;2.80;;;22.20;99.90;;;;;;5048433;28;20449;-72
2022/08/20 09:02:21;;;;;;;3.07;2.83;;;22.30;99.90;;;;;;5057534;28;20445;-71
2022/08/20 09:05:16;;;;;;;4.83;3.17;;;22.30;99.90;;;;;;5056081;28;20436;-72
2022/08/20 09:08:10;;;;;;;3.43;3.13;;;22.40;99.90;;;;;;5060561;28;20472;-71
2022/08/20 09:11:07;;;;;;;3.30;3.00;;;22.50;99.90;;;;;;5050209;28;20466;-71
2022/08/20 09:13:56;;;;;;;3.50;3.20;;;22.60;99.90;;;;;;5057919;28;20678;-74
2022/08/20 09:16:45;;;;;;;3.87;2.90;;;22.70;99.90;;;;;;5056665;28;20558;-71
2022/08/20 09:19:45;;;;;;;3.13;2.83;;;22.70;99.90;;;;;;5036386;28;20466;-72
2022/08/20 09:22:33;;;;;;;4.90;3.00;;;22.70;99.90;;;;;;5056607;28;20618;-71
2022/08/20 09:25:25;;;;;;;5.03;3.60;;;22.70;99.90;;;;;;5056433;28;20465;-71
2022/08/20 09:28:13;;;;;;;5.30;3.13;;;22.70;99.90;;;;;;5075086;28;20456;-71
2022/08/20 09:31:02;;;;;;;4.90;3.13;;;22.70;99.90;;;;;;5064323;28;20540;-71
2022/08/20 09:33:52;;;;;;;3.83;2.90;;;22.70;99.90;;;;;;5071623;28;20456;-73
2022/08/20 09:36:41;;;;;;;4.17;3.60;;;22.70;99.90;;;;;;5050641;28;20604;-73
2022/08/20 09:39:30;;;;;;;4.83;3.13;;;22.70;99.90;;;;;;5057888;28;20483;-73
2022/08/20 09:42:22;;;;;;;4.37;3.03;;;22.70;99.90;;;;;;5062047;28;20477;-73
2022/08/20 09:45:12;;;;;;;4.37;3.10;;;22.80;99.90;;;;;;5053774;28;20456;-71
2022/08/20 09:48:00;;;;;;;4.93;3.27;;;22.80;99.90;;;;;;5044690;28;20481;-71
2022/08/20 09:50:49;;;;;;;4.53;2.90;;;22.80;99.90;;;;;;5040029;28;20455;-71
2022/08/20 09:53:38;;;;;;;4.60;2.93;;;22.90;99.90;;;;;;5046438;28;20501;-71
2022/08/20 09:56:28;;;;;;;5.00;2.83;;;23.00;99.90;;;;;;5056145;28;20495;-71
2022/08/20 09:59:16;;;;;;;3.50;2.73;;;23.10;99.90;;;;;;5052981;28;20457;-72
2022/08/20 10:02:04;;;;;;;4.33;2.87;;;23.20;99.90;;;;;;5040471;28;20449;-71
2022/08/20 10:04:56;;;;;;;6.67;2.97;;;23.30;99.90;;;;;;5051275;28;20582;-71
2022/08/20 10:07:44;;;;;;;4.57;3.73;;;23.30;99.90;;;;;;5059290;28;20981;-72
2022/08/20 10:10:37;;;;;;;6.20;3.37;;;23.30;99.90;;;;;;5057111;28;20549;-71
2022/08/20 10:13:26;;;;;;;3.60;2.77;;;23.40;99.90;;;;;;5063860;28;20470;-71
2022/08/20 10:16:16;;;;;;;7.60;3.33;;;23.60;99.90;;;;;;5060837;28;20884;-71
2022/08/20 10:19:05;;;;;;;3.87;2.83;;;23.60;99.90;;;;;;5054309;28;20457;-71
2022/08/20 10:21:54;;;;;;;5.73;3.17;;;23.50;99.90;;;;;;5058440;28;20461;-71
2022/08/20 10:24:44;;;;;;;5.20;3.30;;;23.50;99.90;;;;;;5053554;28;20457;-71
2022/08/20 10:27:35;;;;;;;5.87;3.57;;;23.50;99.90;;;;;;5059255;28;20576;-72
2022/08/20 10:30:26;;;;;;;5.80;3.20;;;23.60;99.90;;;;;;5060378;28;20446;-74
2022/08/20 10:33:14;;;;;;;4.83;3.50;;;23.80;99.90;;;;;;5060920;28;20819;-72
2022/08/20 10:36:06;;;;;;;5.37;3.30;;;23.70;99.90;;;;;;5049956;28;20472;-75
2022/08/20 10:38:55;;;;;;;4.47;3.13;;;23.60;99.90;;;;;;5046073;28;20552;-72
2022/08/20 10:41:43;;;;;;;6.10;3.53;;;23.70;99.90;;;;;;5061915;28;20478;-72
2022/08/20 10:44:34;;;;;;;4.57;3.20;;;23.80;99.90;;;;;;5063189;28;20548;-73
2022/08/20 10:47:25;;;;;;;4.23;3.37;;;23.80;99.90;;;;;;5072911;28;20545;-75
2022/08/20 10:50:18;;;;;;;4.30;3.00;;;23.90;99.90;;;;;;5078496;28;20529;-72
2022/08/20 10:53:07;;;;;;;3.10;2.80;;;23.90;99.90;;;;;;5077478;28;20457;-76
2022/08/20 10:55:56;;;;;;;4.10;3.07;;;23.80;99.90;;;;;;5075080;28;20476;-73
2022/08/20 10:58:44;;;;;;;4.03;2.97;;;23.90;99.90;;;;;;5067125;28;20537;-74
2022/08/20 11:01:34;;;;;;;4.80;2.93;;;23.90;99.90;;;;;;5069015;28;20558;-74
2022/08/20 11:04:24;;;;;;;5.10;3.20;;;23.80;99.90;;;;;;5069802;28;20449;-73
2022/08/20 11:07:15;;;;;;;3.77;3.00;;;23.80;99.90;;;;;;5060804;28;21245;-71
2022/08/20 11:10:05;;;;;;;5.40;2.90;;;23.90;99.90;;;;;;5059414;28;20898;-71
2022/08/20 11:12:58;;;;;;;4.70;3.10;;;23.90;99.90;;;;;;5046702;28;20448;-72
2022/08/20 11:15:47;;;;;;;6.37;3.30;;;23.90;99.90;;;;;;5032427;28;20749;-71
2022/08/20 11:18:36;;;;;;;5.60;2.73;;;23.90;99.90;;;;;;5055230;28;20489;-71
2022/08/20 11:21:25;;;;;;;3.53;2.50;;;23.90;99.90;;;;;;5052871;28;21148;-71
2022/08/20 11:24:17;;;;;;;4.63;2.73;;;23.90;99.90;;;;;;5055804;28;20560;-72
2022/08/20 11:27:07;;;;;;;3.57;2.70;;;23.90;99.90;;;;;;5055675;28;20489;-71
2022/08/20 11:29:55;;;;;;;5.93;2.50;;;23.90;99.90;;;;;;5052019;28;20887;-71
2022/08/20 11:32:44;;;;;;;6.93;2.77;;;24.00;99.90;;;;;;5056778;28;21544;-71
2022/08/20 11:35:35;;;;;;;2.50;2.00;;;24.10;99.90;;;;;;5049635;28;20563;-71
2022/08/20 11:38:37;;;;;;;2.17;1.97;;;24.10;99.90;;;;;;5065944;28;20448;-71
2022/08/20 11:41:25;;;;;;;3.43;2.27;;;24.10;99.90;;;;;;5048428;28;20454;-71
2022/08/20 11:44:14;;;;;;;4.23;2.70;;;24.10;99.90;;;;;;5063681;28;20481;-71
2022/08/20 11:47:19;;;;;;;4.17;2.13;;;24.20;99.90;;;;;;5054696;28;20477;-71
2022/08/20 11:50:10;;;;;;;4.47;2.30;;;24.40;99.90;;;;;;5062216;28;20966;-71
2022/08/20 11:53:00;;;;;;;4.43;2.10;;;24.50;99.90;;;;;;5058376;28;20462;-71
2022/08/20 11:55:53;;;;;;;5.83;2.00;;;24.60;99.90;;;;;;5052454;28;20473;-71
2022/08/20 11:58:44;;;;;;;3.20;1.83;;;24.40;99.90;;;;;;5060600;28;20446;-71
2022/08/20 12:01:33;;;;;;;3.77;2.33;;;24.40;99.90;;;;;;5060341;28;20576;-71
2022/08/20 12:04:21;;;;;;;4.60;1.70;;;24.40;99.90;;;;;;5062317;28;20586;-71
2022/08/20 12:07:15;;;;;;;2.63;1.70;;;24.30;99.90;;;;;;5065120;28;21013;-71
2022/08/20 12:10:08;;;;;;;3.93;2.00;;;24.50;99.90;;;;;;5066234;28;20555;-71
2022/08/20 12:12:57;;;;;;;3.20;1.73;;;24.40;99.90;;;;;;5067568;28;21565;-71
2022/08/20 12:15:45;;;;;;;3.83;2.07;;;24.40;99.90;;;;;;5065205;28;20582;-71
2022/08/20 12:18:34;;;;;;;4.50;2.03;;;24.40;99.90;;;;;;5063152;28;20496;-71
2022/08/20 12:21:22;;;;;;;2.00;1.70;;;24.40;99.90;;;;;;5070791;28;21497;-71
2022/08/20 12:24:10;;;;;;;2.80;1.80;;;24.60;99.90;;;;;;5067717;28;20483;-71
2022/08/20 12:27:10;;;;;;;4.60;2.20;;;24.60;99.90;;;;;;5071238;28;20986;-71
2022/08/20 12:30:01;;;;;;;3.70;1.73;;;24.70;99.90;;;;;;5057922;28;21090;-71
2022/08/20 12:32:49;;;;;;;3.03;1.83;;;24.90;99.90;;;;;;5056055;28;20456;-71
2022/08/20 12:35:38;;;;;;;3.77;1.70;;;25.00;99.90;;;;;;5053127;28;21000;-71
2022/08/20 12:38:31;;;;;;;3.37;1.30;;;25.10;99.90;;;;;;5062707;28;20640;-71
2022/08/20 12:41:22;;;;;;;2.93;1.60;;;25.20;99.90;;;;;;5060562;28;20977;-70
2022/08/20 12:44:11;;;;;;;2.00;1.50;;;25.40;99.90;;;;;;5060462;28;20448;-71
2022/08/20 12:47:09;;;;;;;1.90;1.47;;;25.40;99.90;;;;;;5065106;28;20477;-70
2022/08/20 12:50:01;;;;;;;2.33;1.37;;;25.40;99.90;;;;;;5067593;28;20541;-70
2022/08/20 12:52:52;;;;;;;1.50;1.10;;;25.40;99.90;;;;;;5068369;28;20437;-71
2022/08/20 12:55:42;;;;;;;2.53;1.60;;;25.40;99.90;;;;;;5049346;28;20476;-70
2022/08/20 12:58:30;;;;;;;4.40;1.60;;;25.40;99.90;;;;;;5065773;28;20449;-70
2022/08/20 13:01:19;;;;;;;4.77;1.20;;;25.40;99.90;;;;;;5062025;28;20480;-71
2022/08/20 13:04:08;;;;;;;2.40;1.50;;;25.60;99.90;;;;;;5074521;28;20571;-71
2022/08/20 13:07:00;;;;;;;2.67;1.40;;;25.80;99.90;;;;;;5057557;28;20572;-71
2022/08/20 13:09:48;;;;;;;2.27;1.40;;;25.90;99.90;;;;;;5074622;28;20584;-70
2022/08/20 13:12:37;;;;;;;3.53;1.63;;;26.00;99.90;;;;;;5062754;28;20459;-70
2022/08/20 13:15:25;;;;;;;2.50;1.10;;;26.10;99.90;;;;;;5058548;28;20477;-70
2022/08/20 13:18:15;;;;;;;4.40;1.90;;;26.20;99.90;;;;;;5063586;28;20454;-71
2022/08/20 13:21:03;;;;;;;2.20;1.30;;;26.40;99.90;;;;;;5066079;28;20594;-70
2022/08/20 13:23:52;;;;;;;3.07;1.30;;;26.50;99.90;;;;;;5062560;28;20465;-70
2022/08/20 13:26:42;;;;;;;3.73;1.60;;;26.50;99.90;;;;;;5063576;28;22004;-70
2022/08/20 13:29:30;;;;;;;2.93;1.80;;;26.70;99.90;;;;;;5061779;28;20509;-70
2022/08/20 13:32:19;;;;;;;3.10;1.40;;;26.90;99.90;;;;;;5063680;28;20530;-70
2022/08/20 13:35:11;;;;;;;2.27;1.50;;;26.90;99.90;;;;;;5065682;28;21346;-69
2022/08/20 13:37:59;;;;;;;3.93;2.10;;;26.90;99.90;;;;;;5049702;28;20979;-68
2022/08/20 13:40:47;;;;;;;3.37;1.60;;;27.10;99.90;;;;;;5062297;28;20947;-69
2022/08/20 13:43:36;;;;;;;3.57;1.50;;;27.40;99.90;;;;;;5060141;28;20472;-69
2022/08/20 13:46:24;;;;;;;3.10;1.70;;;27.60;99.90;;;;;;5065459;28;20468;-69
2022/08/20 13:49:12;;;;;;;3.63;1.77;;;27.40;99.90;;;;;;5062820;28;20473;-69
2022/08/20 13:52:02;;;;;;;4.80;1.67;;;27.40;99.90;;;;;;5058071;28;20557;-70
2022/08/20 13:54:53;;;;;;;2.00;1.40;;;27.60;99.90;;;;;;5059831;28;20950;-69
2022/08/20 13:57:42;;;;;;;2.70;1.30;;;27.60;99.90;;;;;;5054720;28;20537;-69
2022/08/20 14:00:32;;;;;;;4.83;1.37;;;27.50;99.90;;;;;;5060824;28;20608;-70
2022/08/20 14:03:20;;;;;;;4.50;1.47;;;27.70;99.90;;;;;;5055313;28;20599;-70
2022/08/20 14:06:12;;;;;;;2.90;1.20;;;28.00;99.90;;;;;;5070349;28;20535;-70
2022/08/20 14:09:04;;;;;;;3.10;1.30;;;28.10;99.90;;;;;;5062707;28;20473;-70
2022/08/20 14:11:52;;;;;;;2.70;1.30;;;28.30;99.90;;;;;;5060660;28;20446;-71
2022/08/20 14:14:43;;;;;;;1.93;1.40;;;28.10;99.90;;;;;;5057418;28;22526;-70
2022/08/20 14:17:33;;;;;;;3.10;1.10;;;28.20;99.90;;;;;;5063467;28;20453;-70
2022/08/20 14:20:24;;;;;;;2.70;1.20;;;28.20;99.90;;;;;;5065511;28;20825;-71
2022/08/20 14:23:16;;;;;;;1.53;1.20;;;28.00;99.90;;;;;;5061057;28;20464;-71
2022/08/20 14:26:09;;;;;;;2.70;1.30;;;28.20;99.90;;;;;;5052304;28;20505;-71
2022/08/20 14:28:57;;;;;;;2.17;1.23;;;28.40;99.90;;;;;;5047182;28;20588;-71
2022/08/20 14:31:46;;;;;;;2.87;1.07;;;28.50;99.90;;;;;;5050902;28;20465;-70
2022/08/20 14:34:34;;;;;;;3.20;1.37;;;28.60;99.90;;;;;;5051292;28;20499;-70
2022/08/20 14:37:26;;;;;;;7.53;1.30;;;28.40;99.90;;;;;;5045116;28;20841;-70
2022/08/20 14:40:17;;;;;;;2.53;1.37;;;28.50;99.90;;;;;;5066905;28;20478;-70
2022/08/20 14:43:06;;;;;;;3.10;1.20;;;28.40;99.90;;;;;;5045589;28;22344;-71
2022/08/20 14:45:55;;;;;;;2.60;1.17;;;28.40;99.90;;;;;;5036203;28;20484;-70
2022/08/20 14:48:43;;;;;;;2.33;1.10;;;28.50;99.90;;;;;;5034934;28;20488;-71
2022/08/20 14:51:40;;;;;;;1.47;0.90;;;29.00;99.90;;;;;;5046031;28;20442;-70
2022/08/20 14:54:28;;;;;;;3.20;1.47;;;29.80;99.60;;;;;;5059325;28;20963;-70
2022/08/20 14:57:20;;;;;;;3.20;1.23;;;30.50;98.00;;;;;;5050753;28;20514;-70
2022/08/20 15:00:14;;;;;;;1.33;1.00;;;30.80;97.20;;;;;;5059199;28;20499;-70
2022/08/20 15:03:02;;;;;;;2.37;1.60;;;30.60;95.10;;;;;;5058440;28;20454;-70
2022/08/20 15:05:51;;;;;;;1.80;1.13;;;30.30;95.00;;;;;;5063820;28;21012;-70